sensor_id;sensor_type;location;lat;lon;timestamp;pressure;altitude;pressure_sealevel;temperature;humidity
70909;BME280;58554;52.006;5.926;2023-01-30T00:00:59;100875.56;;;3.45;90.60
70909;BME280;58554;52.006;5.926;2023-01-30T00:03:28;100879.84;;;3.47;90.73
70909;BME280;58554;52.006;5.926;2023-01-30T00:05:55;100870.28;;;3.48;90.28
70909;BME280;58554;52.006;5.926;2023-01-30T00:08:22;100858.06;;;3.49;90.48
70909;BME280;58554;52.006;5.926;2023-01-30T00:10:51;100858.91;;;3.49;90.70
70909;BME280;58554;52.006;5.926;2023-01-30T00:13:17;100857.97;;;3.52;90.38
70909;BME280;58554;52.006;5.926;2023-01-30T00:15:44;100859.69;;;3.53;89.83
70909;BME280;58554;52.006;5.926;2023-01-30T00:18:10;100852.69;;;3.55;90.35
70909;BME280;58554;52.006;5.926;2023-01-30T00:20:37;100850.03;;;3.56;90.30
70909;BME280;58554;52.006;5.926;2023-01-30T00:23:03;100856.06;;;3.58;90.48
70909;BME280;58554;52.006;5.926;2023-01-30T00:25:30;100858.69;;;3.58;90.47
70909;BME280;58554;52.006;5.926;2023-01-30T00:28:00;100860.34;;;3.61;89.96
70909;BME280;58554;52.006;5.926;2023-01-30T00:30:27;100835.94;;;3.60;91.55
70909;BME280;58554;52.006;5.926;2023-01-30T00:32:55;100828.06;;;3.62;90.81
70909;BME280;58554;52.006;5.926;2023-01-30T00:35:22;100819.38;;;3.61;90.51
70909;BME280;58554;52.006;5.926;2023-01-30T00:37:49;100825.41;;;3.63;90.74
70909;BME280;58554;52.006;5.926;2023-01-30T00:40:16;100826.25;;;3.64;90.14
70909;BME280;58554;52.006;5.926;2023-01-30T00:42:42;100822.75;;;3.65;90.00
70909;BME280;58554;52.006;5.926;2023-01-30T00:45:12;100802.69;;;3.65;90.30
70909;BME280;58554;52.006;5.926;2023-01-30T00:47:38;100811.34;;;3.68;90.54
70909;BME280;58554;52.006;5.926;2023-01-30T00:50:06;100815.72;;;3.67;90.55
70909;BME280;58554;52.006;5.926;2023-01-30T00:52:33;100805.28;;;3.67;91.17
70909;BME280;58554;52.006;5.926;2023-01-30T00:54:59;100792.19;;;3.67;91.91
70909;BME280;58554;52.006;5.926;2023-01-30T00:57:26;100786.91;;;3.69;92.35
70909;BME280;58554;52.006;5.926;2023-01-30T00:59:52;100794.72;;;3.70;91.96
70909;BME280;58554;52.006;5.926;2023-01-30T01:02:22;100776.34;;;3.73;91.61
70909;BME280;58554;52.006;5.926;2023-01-30T01:04:48;100776.28;;;3.75;91.90
70909;BME280;58554;52.006;5.926;2023-01-30T01:07:15;100786.69;;;3.76;92.34
70909;BME280;58554;52.006;5.926;2023-01-30T01:09:41;100772.66;;;3.79;92.05
70909;BME280;58554;52.006;5.926;2023-01-30T01:12:08;100770.88;;;3.81;91.93
70909;BME280;58554;52.006;5.926;2023-01-30T01:14:34;100772.59;;;3.82;92.08
70909;BME280;58554;52.006;5.926;2023-01-30T01:17:01;100779.44;;;3.86;92.38
70909;BME280;58554;52.006;5.926;2023-01-30T01:19:30;100786.38;;;3.87;92.16
70909;BME280;58554;52.006;5.926;2023-01-30T01:21:57;100774.91;;;3.91;91.87
70909;BME280;58554;52.006;5.926;2023-01-30T01:24:23;100764.47;;;3.91;91.94
70909;BME280;58554;52.006;5.926;2023-01-30T01:26:50;100762.63;;;3.95;91.36
70909;BME280;58554;52.006;5.926;2023-01-30T01:29:16;100758.19;;;3.97;92.13
70909;BME280;58554;52.006;5.926;2023-01-30T01:31:43;100746.81;;;3.98;91.77
70909;BME280;58554;52.006;5.926;2023-01-30T01:34:10;100750.25;;;4.00;91.80
70909;BME280;58554;52.006;5.926;2023-01-30T01:36:39;100741.47;;;4.02;91.33
70909;BME280;58554;52.006;5.926;2023-01-30T01:39:06;100734.47;;;4.03;91.74
70909;BME280;58554;52.006;5.926;2023-01-30T01:41:32;100729.22;;;4.03;91.62
70909;BME280;58554;52.006;5.926;2023-01-30T01:44:02;100725.66;;;4.05;91.67
70909;BME280;58554;52.006;5.926;2023-01-30T01:46:33;100727.31;;;4.08;91.46
70909;BME280;58554;52.006;5.926;2023-01-30T01:49:11;100715.09;;;4.09;92.10
70909;BME280;58554;52.006;5.926;2023-01-30T01:51:48;100703.72;;;4.10;92.39
70909;BME280;58554;52.006;5.926;2023-01-30T01:54:23;100709.81;;;4.10;91.42
70909;BME280;58554;52.006;5.926;2023-01-30T01:56:55;100702.75;;;4.12;91.83
70909;BME280;58554;52.006;5.926;2023-01-30T01:59:26;100703.66;;;4.13;92.47
70909;BME280;58554;52.006;5.926;2023-01-30T02:02:04;100700.09;;;4.14;92.64
70909;BME280;58554;52.006;5.926;2023-01-30T02:04:35;100697.44;;;4.15;92.87
70909;BME280;58554;52.006;5.926;2023-01-30T02:07:08;100693.06;;;4.16;93.26
70909;BME280;58554;52.006;5.926;2023-01-30T02:09:35;100687.75;;;4.19;93.03
70909;BME280;58554;52.006;5.926;2023-01-30T02:12:03;100692.09;;;4.18;93.30
70909;BME280;58554;52.006;5.926;2023-01-30T02:14:32;100702.53;;;4.20;93.40
70909;BME280;58554;52.006;5.926;2023-01-30T02:17:00;100705.94;;;4.22;93.38
70909;BME280;58554;52.006;5.926;2023-01-30T02:19:33;100692.81;;;4.23;92.94
70909;BME280;58554;52.006;5.926;2023-01-30T02:22:34;100692.66;;;4.28;92.68
70909;BME280;58554;52.006;5.926;2023-01-30T02:25:40;100682.09;;;4.31;92.67
70909;BME280;58554;52.006;5.926;2023-01-30T02:28:48;100701.22;;;4.33;92.01
70909;BME280;58554;52.006;5.926;2023-01-30T02:31:49;100683.69;;;4.35;93.14
70909;BME280;58554;52.006;5.926;2023-01-30T02:34:33;100681.00;;;4.38;92.88
70909;BME280;58554;52.006;5.926;2023-01-30T02:37:16;100675.66;;;4.41;92.58
70909;BME280;58554;52.006;5.926;2023-01-30T02:40:09;100679.88;;;4.45;92.61
70909;BME280;58554;52.006;5.926;2023-01-30T02:42:51;100685.81;;;4.51;93.10
70909;BME280;58554;52.006;5.926;2023-01-30T02:45:30;100690.00;;;4.56;93.60
70909;BME280;58554;52.006;5.926;2023-01-30T02:48:05;100669.78;;;4.60;94.03
70909;BME280;58554;52.006;5.926;2023-01-30T02:50:39;100661.72;;;4.66;93.71
70909;BME280;58554;52.006;5.926;2023-01-30T02:53:11;100665.91;;;4.72;93.46
70909;BME280;58554;52.006;5.926;2023-01-30T02:55:40;100653.50;;;4.77;93.42
70909;BME280;58554;52.006;5.926;2023-01-30T02:58:08;100649.00;;;4.80;93.06
70909;BME280;58554;52.006;5.926;2023-01-30T03:01:02;100648.03;;;4.83;93.24
70909;BME280;58554;52.006;5.926;2023-01-30T03:04:18;100649.59;;;4.88;92.73
70909;BME280;58554;52.006;5.926;2023-01-30T03:07:08;100642.53;;;4.91;93.40
70909;BME280;58554;52.006;5.926;2023-01-30T03:09:48;100637.25;;;4.92;93.80
70909;BME280;58554;52.006;5.926;2023-01-30T03:12:33;100634.63;;;4.92;94.04
70909;BME280;58554;52.006;5.926;2023-01-30T03:15:12;100636.38;;;4.92;95.05
70909;BME280;58554;52.006;5.926;2023-01-30T03:17:46;100635.47;;;4.93;94.61
70909;BME280;58554;52.006;5.926;2023-01-30T03:20:18;100626.75;;;4.92;94.32
70909;BME280;58554;52.006;5.926;2023-01-30T03:22:46;100632.00;;;4.92;93.75
70909;BME280;58554;52.006;5.926;2023-01-30T03:25:15;100628.47;;;4.93;93.46
70909;BME280;58554;52.006;5.926;2023-01-30T03:27:44;100624.06;;;4.95;93.67
70909;BME280;58554;52.006;5.926;2023-01-30T03:30:12;100626.63;;;4.97;93.64
70909;BME280;58554;52.006;5.926;2023-01-30T03:32:39;100616.09;;;4.98;93.75
70909;BME280;58554;52.006;5.926;2023-01-30T03:35:06;100627.44;;;4.99;93.52
70909;BME280;58554;52.006;5.926;2023-01-30T03:37:36;100626.50;;;5.00;93.76
70909;BME280;58554;52.006;5.926;2023-01-30T03:40:04;100620.38;;;5.01;93.74
70909;BME280;58554;52.006;5.926;2023-01-30T03:42:32;100618.53;;;5.03;93.31
70909;BME280;58554;52.006;5.926;2023-01-30T03:44:59;100608.84;;;5.05;93.84
70909;BME280;58554;52.006;5.926;2023-01-30T03:47:25;100631.50;;;5.06;93.96
70909;BME280;58554;52.006;5.926;2023-01-30T03:49:51;100613.16;;;5.06;94.15
70909;BME280;58554;52.006;5.926;2023-01-30T03:52:18;100621.84;;;5.08;93.77
70909;BME280;58554;52.006;5.926;2023-01-30T03:54:47;100617.47;;;5.08;93.67
70909;BME280;58554;52.006;5.926;2023-01-30T03:57:14;100617.47;;;5.08;93.95
70909;BME280;58554;52.006;5.926;2023-01-30T03:59:40;100626.13;;;5.11;93.96
70909;BME280;58554;52.006;5.926;2023-01-30T04:02:07;100617.38;;;5.10;94.12
70909;BME280;58554;52.006;5.926;2023-01-30T04:04:33;100628.75;;;5.11;93.79
70909;BME280;58554;52.006;5.926;2023-01-30T04:07:00;100625.16;;;5.13;93.81
70909;BME280;58554;52.006;5.926;2023-01-30T04:09:26;100618.19;;;5.12;93.75
70909;BME280;58554;52.006;5.926;2023-01-30T04:11:56;100614.66;;;5.13;93.72
70909;BME280;58554;52.006;5.926;2023-01-30T04:14:22;100624.22;;;5.14;93.81
70909;BME280;58554;52.006;5.926;2023-01-30T04:16:49;100629.41;;;5.16;93.21
70909;BME280;58554;52.006;5.926;2023-01-30T04:19:15;100619.78;;;5.16;93.19
70909;BME280;58554;52.006;5.926;2023-01-30T04:21:41;100628.53;;;5.17;93.02
70909;BME280;58554;52.006;5.926;2023-01-30T04:24:08;100624.13;;;5.17;93.35
70909;BME280;58554;52.006;5.926;2023-01-30T04:26:35;100623.28;;;5.17;93.23
70909;BME280;58554;52.006;5.926;2023-01-30T04:29:04;100653.81;;;5.18;94.13
70909;BME280;58554;52.006;5.926;2023-01-30T04:31:31;100614.50;;;5.18;94.04
70909;BME280;58554;52.006;5.926;2023-01-30T04:33:57;100620.53;;;5.20;93.85
70909;BME280;58554;52.006;5.926;2023-01-30T04:36:24;100622.25;;;5.21;93.83
70909;BME280;58554;52.006;5.926;2023-01-30T04:38:50;100604.81;;;5.20;94.02
70909;BME280;58554;52.006;5.926;2023-01-30T04:41:17;100606.44;;;5.22;94.13
70909;BME280;58554;52.006;5.926;2023-01-30T04:43:43;100602.97;;;5.22;93.89
70909;BME280;58554;52.006;5.926;2023-01-30T04:46:12;100605.56;;;5.23;93.95
70909;BME280;58554;52.006;5.926;2023-01-30T04:48:39;100595.91;;;5.24;94.07
70909;BME280;58554;52.006;5.926;2023-01-30T04:51:06;100605.56;;;5.23;94.20
70909;BME280;58554;52.006;5.926;2023-01-30T04:53:32;100608.97;;;5.25;93.97
70909;BME280;58554;52.006;5.926;2023-01-30T04:55:59;100614.22;;;5.25;93.56
70909;BME280;58554;52.006;5.926;2023-01-30T04:58:25;100624.63;;;5.27;93.58
70909;BME280;58554;52.006;5.926;2023-01-30T05:00:52;100624.56;;;5.28;94.26
70909;BME280;58554;52.006;5.926;2023-01-30T05:03:21;100631.53;;;5.30;93.97
70909;BME280;58554;52.006;5.926;2023-01-30T05:05:48;100626.22;;;5.31;94.04
70909;BME280;58554;52.006;5.926;2023-01-30T05:08:15;100614.81;;;5.32;94.44
70909;BME280;58554;52.006;5.926;2023-01-30T05:10:41;100604.34;;;5.32;94.22
70909;BME280;58554;52.006;5.926;2023-01-30T05:13:08;100617.41;;;5.34;94.04
70909;BME280;58554;52.006;5.926;2023-01-30T05:15:34;100615.63;;;5.34;94.06
70909;BME280;58554;52.006;5.926;2023-01-30T05:18:01;100614.78;;;5.34;94.20
70909;BME280;58554;52.006;5.926;2023-01-30T05:20:30;100607.75;;;5.34;93.79
70909;BME280;58554;52.006;5.926;2023-01-30T05:22:56;100609.47;;;5.35;94.09
70909;BME280;58554;52.006;5.926;2023-01-30T05:25:23;100612.97;;;5.36;94.25
70909;BME280;58554;52.006;5.926;2023-01-30T05:27:49;100613.81;;;5.36;94.19
70909;BME280;58554;52.006;5.926;2023-01-30T05:30:16;100614.66;;;5.37;94.03
70909;BME280;58554;52.006;5.926;2023-01-30T05:32:43;100617.16;;;5.40;93.76
70909;BME280;58554;52.006;5.926;2023-01-30T05:35:09;100605.75;;;5.41;93.48
70909;BME280;58554;52.006;5.926;2023-01-30T05:37:39;100609.22;;;5.41;93.74
70909;BME280;58554;52.006;5.926;2023-01-30T05:40:06;100612.63;;;5.43;93.34
70909;BME280;58554;52.006;5.926;2023-01-30T05:42:34;100622.28;;;5.43;93.20
70909;BME280;58554;52.006;5.926;2023-01-30T05:45:00;100628.38;;;5.43;93.15
70909;BME280;58554;52.006;5.926;2023-01-30T05:47:27;100632.81;;;5.41;92.98
70909;BME280;58554;52.006;5.926;2023-01-30T05:49:53;100631.91;;;5.42;93.03
70909;BME280;58554;52.006;5.926;2023-01-30T05:52:20;100623.22;;;5.42;93.30
70909;BME280;58554;52.006;5.926;2023-01-30T05:54:49;100639.88;;;5.39;93.04
70909;BME280;58554;52.006;5.926;2023-01-30T05:57:16;100641.66;;;5.39;93.01
70909;BME280;58554;52.006;5.926;2023-01-30T05:59:43;100632.03;;;5.39;92.79
70909;BME280;58554;52.006;5.926;2023-01-30T06:02:09;100622.47;;;5.38;92.66
70909;BME280;58554;52.006;5.926;2023-01-30T06:04:36;100629.47;;;5.38;92.41
70909;BME280;58554;52.006;5.926;2023-01-30T06:07:03;100625.28;;;5.34;92.41
70909;BME280;58554;52.006;5.926;2023-01-30T06:09:29;100621.06;;;5.30;92.16
70909;BME280;58554;52.006;5.926;2023-01-30T06:11:58;100618.66;;;5.23;91.72
70909;BME280;58554;52.006;5.926;2023-01-30T06:14:25;100627.59;;;5.18;91.48
70909;BME280;58554;52.006;5.926;2023-01-30T06:16:51;100629.56;;;5.13;91.45
70909;BME280;58554;52.006;5.926;2023-01-30T06:19:18;100642.94;;;5.05;90.83
70909;BME280;58554;52.006;5.926;2023-01-30T06:21:44;100653.63;;;4.99;90.87
70909;BME280;58554;52.006;5.926;2023-01-30T06:24:11;100652.09;;;4.92;90.72
70909;BME280;58554;52.006;5.926;2023-01-30T06:26:37;100647.81;;;4.89;90.55
70909;BME280;58554;52.006;5.926;2023-01-30T06:29:07;100653.94;;;4.90;90.31
70909;BME280;58554;52.006;5.926;2023-01-30T06:31:33;100666.25;;;4.87;90.13
70909;BME280;58554;52.006;5.926;2023-01-30T06:34:00;100672.38;;;4.86;90.31
70909;BME280;58554;52.006;5.926;2023-01-30T06:36:26;100667.19;;;4.85;90.15
70909;BME280;58554;52.006;5.926;2023-01-30T06:38:53;100660.34;;;4.81;90.14
70909;BME280;58554;52.006;5.926;2023-01-30T06:41:19;100662.22;;;4.77;90.21
70909;BME280;58554;52.006;5.926;2023-01-30T06:43:46;100667.69;;;4.71;89.65
70909;BME280;58554;52.006;5.926;2023-01-30T06:46:15;100664.34;;;4.66;89.61
70909;BME280;58554;52.006;5.926;2023-01-30T06:48:42;100668.03;;;4.60;89.63
70909;BME280;58554;52.006;5.926;2023-01-30T06:51:09;100662.09;;;4.55;89.62
70909;BME280;58554;52.006;5.926;2023-01-30T06:53:35;100667.53;;;4.49;89.77
70909;BME280;58554;52.006;5.926;2023-01-30T06:56:02;100675.56;;;4.44;89.67
70909;BME280;58554;52.006;5.926;2023-01-30T06:58:29;100675.81;;;4.37;89.90
70909;BME280;58554;52.006;5.926;2023-01-30T07:00:55;100676.94;;;4.30;89.70
70909;BME280;58554;52.006;5.926;2023-01-30T07:03:25;100683.22;;;4.24;89.70
70909;BME280;58554;52.006;5.926;2023-01-30T07:05:51;100676.34;;;4.20;89.60
70909;BME280;58554;52.006;5.926;2023-01-30T07:08:18;100682.59;;;4.16;89.57
70909;BME280;58554;52.006;5.926;2023-01-30T07:10:44;100691.44;;;4.12;89.31
70909;BME280;58554;52.006;5.926;2023-01-30T07:13:11;100697.59;;;4.11;89.01
70909;BME280;58554;52.006;5.926;2023-01-30T07:15:38;100688.94;;;4.09;89.08
70909;BME280;58554;52.006;5.926;2023-01-30T07:18:04;100695.09;;;4.06;89.12
70909;BME280;58554;52.006;5.926;2023-01-30T07:20:34;100707.34;;;4.05;89.00
70909;BME280;58554;52.006;5.926;2023-01-30T07:23:00;100714.34;;;4.05;88.75
70909;BME280;58554;52.006;5.926;2023-01-30T07:25:27;100711.81;;;4.02;88.57
70909;BME280;58554;52.006;5.926;2023-01-30T07:27:57;100711.06;;;3.98;88.52
70909;BME280;58554;52.006;5.926;2023-01-30T07:30:25;100716.34;;;3.97;88.63
70909;BME280;58554;52.006;5.926;2023-01-30T07:32:55;100718.13;;;3.95;88.73
70909;BME280;58554;52.006;5.926;2023-01-30T07:35:25;100701.59;;;3.94;88.77
70909;BME280;58554;52.006;5.926;2023-01-30T07:37:55;100698.19;;;3.92;88.38
70909;BME280;58554;52.006;5.926;2023-01-30T07:40:23;100712.94;;;3.93;88.41
70909;BME280;58554;52.006;5.926;2023-01-30T07:42:57;100712.94;;;3.93;88.27
70909;BME280;58554;52.006;5.926;2023-01-30T07:45:27;100710.41;;;3.92;88.00
70909;BME280;58554;52.006;5.926;2023-01-30T07:47:56;100735.69;;;3.91;88.01
70909;BME280;58554;52.006;5.926;2023-01-30T07:50:23;100727.84;;;3.91;87.98
70909;BME280;58554;52.006;5.926;2023-01-30T07:52:49;100718.31;;;3.89;88.22
70909;BME280;58554;52.006;5.926;2023-01-30T07:55:18;100716.66;;;3.86;88.21
70909;BME280;58554;52.006;5.926;2023-01-30T07:57:45;100726.28;;;3.85;88.01
70909;BME280;58554;52.006;5.926;2023-01-30T08:00:13;100702.78;;;3.84;87.95
70909;BME280;58554;52.006;5.926;2023-01-30T08:02:40;100711.47;;;3.84;87.57
70909;BME280;58554;52.006;5.926;2023-01-30T08:05:07;100716.72;;;3.84;87.61
70909;BME280;58554;52.006;5.926;2023-01-30T08:07:34;100714.94;;;3.85;87.32
70909;BME280;58554;52.006;5.926;2023-01-30T08:10:01;100731.44;;;3.87;87.32
70909;BME280;58554;52.006;5.926;2023-01-30T08:12:30;100732.25;;;3.89;87.29
70909;BME280;58554;52.006;5.926;2023-01-30T08:14:57;100742.72;;;3.89;87.51
70909;BME280;58554;52.006;5.926;2023-01-30T08:17:23;100747.09;;;3.89;87.06
70909;BME280;58554;52.006;5.926;2023-01-30T08:19:49;100759.22;;;3.91;87.23
70909;BME280;58554;52.006;5.926;2023-01-30T08:22:16;100740.84;;;3.94;86.46
70909;BME280;58554;52.006;5.926;2023-01-30T08:24:43;100732.00;;;3.98;86.53
70909;BME280;58554;52.006;5.926;2023-01-30T08:27:09;100749.38;;;3.99;86.15
70909;BME280;58554;52.006;5.926;2023-01-30T08:29:38;100744.13;;;4.01;85.68
70909;BME280;58554;52.006;5.926;2023-01-30T08:32:05;100759.72;;;4.04;85.96
70909;BME280;58554;52.006;5.926;2023-01-30T08:34:32;100769.25;;;4.06;86.16
70909;BME280;58554;52.006;5.926;2023-01-30T08:36:58;100779.72;;;4.06;85.75
70909;BME280;58554;52.006;5.926;2023-01-30T08:39:25;100763.03;;;4.11;85.11
70909;BME280;58554;52.006;5.926;2023-01-30T08:41:51;100762.91;;;4.14;85.44
70909;BME280;58554;52.006;5.926;2023-01-30T08:44:18;100766.34;;;4.16;85.39
70909;BME280;58554;52.006;5.926;2023-01-30T08:46:47;100755.84;;;4.17;85.52
70909;BME280;58554;52.006;5.926;2023-01-30T08:49:14;100744.38;;;4.21;85.58
70909;BME280;58554;52.006;5.926;2023-01-30T08:51:40;100773.13;;;4.23;85.00
70909;BME280;58554;52.006;5.926;2023-01-30T08:54:07;100754.56;;;4.29;84.38
70909;BME280;58554;52.006;5.926;2023-01-30T08:56:34;100801.50;;;4.35;84.75
70909;BME280;58554;52.006;5.926;2023-01-30T08:59:00;100786.41;;;4.43;84.80
70909;BME280;58554;52.006;5.926;2023-01-30T09:01:27;100773.94;;;4.52;84.85
70909;BME280;58554;52.006;5.926;2023-01-30T09:03:56;100795.25;;;4.67;85.10
70909;BME280;58554;52.006;5.926;2023-01-30T09:06:23;100786.16;;;4.79;84.74
70909;BME280;58554;52.006;5.926;2023-01-30T09:08:49;100800.75;;;4.86;83.42
70909;BME280;58554;52.006;5.926;2023-01-30T09:11:16;100801.50;;;4.90;82.78
70909;BME280;58554;52.006;5.926;2023-01-30T09:13:42;100801.41;;;4.93;83.19
70909;BME280;58554;52.006;5.926;2023-01-30T09:16:09;100800.47;;;4.96;83.04
70909;BME280;58554;52.006;5.926;2023-01-30T09:18:38;100823.19;;;4.95;82.51
70909;BME280;58554;52.006;5.926;2023-01-30T09:21:08;100810.91;;;4.97;82.70
70909;BME280;58554;52.006;5.926;2023-01-30T09:23:36;100807.28;;;5.01;82.96
70909;BME280;58554;52.006;5.926;2023-01-30T09:26:05;100814.25;;;5.02;82.57
70909;BME280;58554;52.006;5.926;2023-01-30T09:28:32;100805.44;;;5.03;81.94
70909;BME280;58554;52.006;5.926;2023-01-30T09:31:00;100814.13;;;5.05;81.75
70909;BME280;58554;52.006;5.926;2023-01-30T09:33:27;100805.28;;;5.08;82.00
70909;BME280;58554;52.006;5.926;2023-01-30T09:35:54;100801.66;;;5.12;81.88
70909;BME280;58554;52.006;5.926;2023-01-30T09:38:24;100794.72;;;5.11;81.71
70909;BME280;58554;52.006;5.926;2023-01-30T09:41:03;100805.09;;;5.14;81.77
70909;BME280;58554;52.006;5.926;2023-01-30T09:47:23;100812.00;;;5.17;81.71
70909;BME280;58554;52.006;5.926;2023-01-30T09:50:10;100821.63;;;5.16;80.98
70909;BME280;58554;52.006;5.926;2023-01-30T09:52:54;100815.38;;;5.20;81.39
70909;BME280;58554;52.006;5.926;2023-01-30T09:55:30;100818.75;;;5.24;81.63
70909;BME280;58554;52.006;5.926;2023-01-30T09:57:59;100827.25;;;5.31;81.67
70909;BME280;58554;52.006;5.926;2023-01-30T10:00:31;100825.44;;;5.33;81.71
70909;BME280;58554;52.006;5.926;2023-01-30T10:03:05;100824.41;;;5.37;80.83
70909;BME280;58554;52.006;5.926;2023-01-30T10:05:42;100829.41;;;5.44;82.07
70909;BME280;58554;52.006;5.926;2023-01-30T10:08:41;100842.19;;;5.54;81.11
70909;BME280;58554;52.006;5.926;2023-01-30T10:11:24;100839.16;;;5.64;81.68
70909;BME280;58554;52.006;5.926;2023-01-30T10:14:26;100851.22;;;5.70;80.89
70909;BME280;58554;52.006;5.926;2023-01-30T10:17:29;100851.13;;;5.73;81.22
70909;BME280;58554;52.006;5.926;2023-01-30T10:20:12;100850.16;;;5.76;81.21
70909;BME280;58554;52.006;5.926;2023-01-30T10:23:00;100848.44;;;5.75;81.67
70909;BME280;58554;52.006;5.926;2023-01-30T10:25:50;100852.03;;;5.72;80.78
70909;BME280;58554;52.006;5.926;2023-01-30T10:28:26;100853.84;;;5.70;81.10
70909;BME280;58554;52.006;5.926;2023-01-30T10:31:03;100845.22;;;5.66;80.79
70909;BME280;58554;52.006;5.926;2023-01-30T10:33:34;100859.25;;;5.65;80.35
70909;BME280;58554;52.006;5.926;2023-01-30T10:36:10;100866.38;;;5.62;80.75
70909;BME280;58554;52.006;5.926;2023-01-30T10:38:45;100871.78;;;5.57;81.15
70909;BME280;58554;52.006;5.926;2023-01-30T10:41:21;100873.56;;;5.57;81.43
70909;BME280;58554;52.006;5.926;2023-01-30T10:43:58;100863.91;;;5.57;80.16
70909;BME280;58554;52.006;5.926;2023-01-30T10:46:54;100859.53;;;5.58;81.06
70909;BME280;58554;52.006;5.926;2023-01-30T10:49:44;100859.25;;;5.65;81.41
70909;BME280;58554;52.006;5.926;2023-01-30T10:52:28;100855.50;;;5.73;81.58
70909;BME280;58554;52.006;5.926;2023-01-30T10:55:12;100849.22;;;5.77;79.73
70909;BME280;58554;52.006;5.926;2023-01-30T10:57:52;100846.50;;;5.80;78.95
70909;BME280;58554;52.006;5.926;2023-01-30T11:00:30;100851.63;;;5.83;79.41
70909;BME280;58554;52.006;5.926;2023-01-30T11:03:21;100860.22;;;5.88;79.91
70909;BME280;58554;52.006;5.926;2023-01-30T11:05:55;100861.81;;;5.92;80.29
70909;BME280;58554;52.006;5.926;2023-01-30T11:08:28;100851.81;;;6.02;78.97
70909;BME280;58554;52.006;5.926;2023-01-30T11:10:56;100857.72;;;6.08;79.55
70909;BME280;58554;52.006;5.926;2023-01-30T11:13:28;100868.59;;;6.21;79.41
70909;BME280;58554;52.006;5.926;2023-01-30T11:16:04;100863.84;;;6.31;79.59
70909;BME280;58554;52.006;5.926;2023-01-30T11:18:43;100863.38;;;6.43;78.26
70909;BME280;58554;52.006;5.926;2023-01-30T11:21:18;100865.53;;;6.56;78.83
70909;BME280;58554;52.006;5.926;2023-01-30T11:23:48;100859.06;;;6.64;77.65
70909;BME280;58554;52.006;5.926;2023-01-30T11:26:18;100863.34;;;6.67;77.66
70909;BME280;58554;52.006;5.926;2023-01-30T11:28:48;100854.59;;;6.66;76.68
70909;BME280;58554;52.006;5.926;2023-01-30T11:31:20;100852.91;;;6.65;76.77
70909;BME280;58554;52.006;5.926;2023-01-30T11:33:59;100874.56;;;6.70;74.79
70909;BME280;58554;52.006;5.926;2023-01-30T11:36:29;100860.34;;;6.76;75.81
70909;BME280;58554;52.006;5.926;2023-01-30T11:38:59;100860.28;;;6.78;75.61
70909;BME280;58554;52.006;5.926;2023-01-30T11:41:27;100853.25;;;6.78;75.09
70909;BME280;58554;52.006;5.926;2023-01-30T11:44:01;100866.28;;;6.81;74.06
70909;BME280;58554;52.006;5.926;2023-01-30T11:46:33;100879.19;;;6.87;75.67
70909;BME280;58554;52.006;5.926;2023-01-30T11:49:09;100860.59;;;6.92;75.50
70909;BME280;58554;52.006;5.926;2023-01-30T11:51:42;100876.13;;;6.98;76.22
70909;BME280;58554;52.006;5.926;2023-01-30T11:54:15;100860.94;;;7.05;74.57
70909;BME280;58554;52.006;5.926;2023-01-30T11:56:47;100885.25;;;7.10;74.60
70909;BME280;58554;52.006;5.926;2023-01-30T11:59:23;100883.44;;;7.12;74.63
70909;BME280;58554;52.006;5.926;2023-01-30T12:02:10;100868.59;;;7.11;72.68
70909;BME280;58554;52.006;5.926;2023-01-30T12:04:45;100876.47;;;7.11;72.97
70909;BME280;58554;52.006;5.926;2023-01-30T12:07:19;100886.78;;;7.16;72.66
70909;BME280;58554;52.006;5.926;2023-01-30T12:09:48;100883.44;;;7.12;72.65
70909;BME280;58554;52.006;5.926;2023-01-30T12:12:30;100876.53;;;7.09;71.06
70909;BME280;58554;52.006;5.926;2023-01-30T12:15:19;100877.50;;;7.07;67.70
70909;BME280;58554;52.006;5.926;2023-01-30T12:17:58;100872.38;;;7.04;69.00
70909;BME280;58554;52.006;5.926;2023-01-30T12:20:42;100885.59;;;7.02;72.35
70909;BME280;58554;52.006;5.926;2023-01-30T12:23:18;100882.22;;;6.99;71.34
70909;BME280;58554;52.006;5.926;2023-01-30T12:26:00;100886.78;;;6.94;71.33
70909;BME280;58554;52.006;5.926;2023-01-30T12:28:36;100884.16;;;6.94;72.97
70909;BME280;58554;52.006;5.926;2023-01-30T12:31:13;100889.44;;;6.94;68.11
70909;BME280;58554;52.006;5.926;2023-01-30T12:33:48;100879.00;;;6.92;71.38
70909;BME280;58554;52.006;5.926;2023-01-30T12:36:24;100890.41;;;6.91;71.42
70909;BME280;58554;52.006;5.926;2023-01-30T12:39:22;100908.63;;;6.96;71.51
70909;BME280;58554;52.006;5.926;2023-01-30T12:42:19;100901.19;;;7.07;72.09
70909;BME280;58554;52.006;5.926;2023-01-30T12:45:13;100898.09;;;7.18;71.61
70909;BME280;58554;52.006;5.926;2023-01-30T12:51:21;100896.88;;;7.26;68.41
70909;BME280;58554;52.006;5.926;2023-01-30T12:54:10;100913.69;;;7.22;66.50
70909;BME280;58554;52.006;5.926;2023-01-30T12:57:04;100911.44;;;7.13;69.75
70909;BME280;58554;52.006;5.926;2023-01-30T12:59:48;100924.72;;;7.10;69.87
70909;BME280;58554;52.006;5.926;2023-01-30T13:02:44;100913.16;;;7.14;67.43
70909;BME280;58554;52.006;5.926;2023-01-30T13:05:31;100911.78;;;7.26;68.50
70909;BME280;58554;52.006;5.926;2023-01-30T13:08:19;100933.81;;;7.23;70.25
70909;BME280;58554;52.006;5.926;2023-01-30T13:11:11;100941.03;;;7.18;70.85
70909;BME280;58554;52.006;5.926;2023-01-30T13:13:57;100948.31;;;7.11;70.75
70909;BME280;58554;52.006;5.926;2023-01-30T13:16:35;100949.53;;;7.03;71.10
70909;BME280;58554;52.006;5.926;2023-01-30T13:19:21;100937.63;;;6.94;70.74
70909;BME280;58554;52.006;5.926;2023-01-30T13:22:02;100968.28;;;6.94;71.35
70909;BME280;58554;52.006;5.926;2023-01-30T13:24:49;100940.41;;;6.89;70.61
70909;BME280;58554;52.006;5.926;2023-01-30T13:27:26;100943.97;;;6.88;69.45
70909;BME280;58554;52.006;5.926;2023-01-30T13:30:00;100958.94;;;6.86;70.85
70909;BME280;58554;52.006;5.926;2023-01-30T13:32:36;100967.88;;;6.82;71.29